createdAt,value
2023-07-06T00:01:37.043Z,5.53
2023-07-06T00:04:03.370Z,5.53
2023-07-06T00:06:29.694Z,5.75
2023-07-06T00:08:56.038Z,5.75
2023-07-06T00:11:22.339Z,5.82
2023-07-06T00:13:48.761Z,6.20
2023-07-06T00:16:15.224Z,6.38
2023-07-06T00:18:41.555Z,6.32
2023-07-06T00:21:07.943Z,5.75
2023-07-06T00:23:34.222Z,6.50
2023-07-06T00:26:00.520Z,5.82
2023-07-06T00:28:26.837Z,5.85
2023-07-06T00:30:53.130Z,6.53
2023-07-06T00:33:19.421Z,6.25
2023-07-06T00:35:45.698Z,5.90
2023-07-06T00:38:11.994Z,5.47
2023-07-06T00:40:38.312Z,5.15
2023-07-06T00:43:04.611Z,5.93
2023-07-06T00:45:30.881Z,5.75
2023-07-06T00:47:57.209Z,5.65
2023-07-06T00:50:23.532Z,5.45
2023-07-06T00:52:49.834Z,5.93
2023-07-06T00:55:16.166Z,6.13
2023-07-06T00:57:42.437Z,6.00
2023-07-06T01:00:08.733Z,6.00
2023-07-06T01:02:35.104Z,5.80
2023-07-06T01:05:01.521Z,5.28
2023-07-06T01:07:27.811Z,6.18
2023-07-06T01:09:54.482Z,6.25
2023-07-06T01:12:20.892Z,5.50
2023-07-06T01:14:47.172Z,5.85
2023-07-06T01:17:13.452Z,6.07
2023-07-06T01:19:39.729Z,5.70
2023-07-06T01:22:06.018Z,5.57
2023-07-06T01:24:32.299Z,5.53
2023-07-06T01:26:58.613Z,6.30
2023-07-06T01:29:24.917Z,6.53
2023-07-06T01:31:51.274Z,6.13
2023-07-06T01:34:18.142Z,6.68
2023-07-06T01:36:44.413Z,5.68
2023-07-06T01:39:10.736Z,5.63
2023-07-06T01:41:37.031Z,5.40
2023-07-06T01:44:03.341Z,5.50
2023-07-06T01:46:29.663Z,5.75
2023-07-06T01:48:55.987Z,5.90
2023-07-06T01:51:22.311Z,6.88
2023-07-06T01:53:48.597Z,5.65
2023-07-06T01:56:14.888Z,5.65
2023-07-06T01:58:41.162Z,6.25
2023-07-06T02:01:07.475Z,6.63
2023-07-06T02:03:33.793Z,5.55
2023-07-06T02:06:00.042Z,4.40
2023-07-06T02:08:26.309Z,4.82
2023-07-06T02:10:52.618Z,4.60
2023-07-06T02:13:19.039Z,5.65
2023-07-06T02:15:45.474Z,6.32
2023-07-06T02:18:11.736Z,6.55
2023-07-06T02:20:38.044Z,7.03
2023-07-06T02:23:04.392Z,7.18
2023-07-06T02:25:30.696Z,6.45
2023-07-06T02:27:57.004Z,5.90
2023-07-06T02:30:23.264Z,5.78
2023-07-06T02:32:49.649Z,5.90
2023-07-06T02:35:16.504Z,6.30
2023-07-06T02:37:43.189Z,5.63
2023-07-06T02:40:09.474Z,6.47
2023-07-06T02:42:35.780Z,7.07
2023-07-06T02:45:02.146Z,5.57
2023-07-06T02:47:28.427Z,5.95
2023-07-06T02:49:54.736Z,5.80
2023-07-06T02:52:21.065Z,6.50
2023-07-06T02:54:47.378Z,6.13
2023-07-06T02:57:13.631Z,5.75
2023-07-06T02:59:39.962Z,6.38
2023-07-06T03:02:06.372Z,6.10
2023-07-06T03:04:32.680Z,5.35
2023-07-06T03:06:58.998Z,6.00
2023-07-06T03:09:25.303Z,6.75
2023-07-06T03:11:51.601Z,5.68
2023-07-06T03:14:17.914Z,5.80
2023-07-06T03:16:44.222Z,6.00
2023-07-06T03:19:10.568Z,5.97
2023-07-06T03:21:36.891Z,6.10
2023-07-06T03:24:03.182Z,5.65
2023-07-06T03:26:29.535Z,5.65
2023-07-06T03:28:55.818Z,6.10
2023-07-06T03:31:22.180Z,6.07
2023-07-06T03:33:48.482Z,6.40
2023-07-06T03:36:14.804Z,5.55
2023-07-06T03:38:41.143Z,6.00
2023-07-06T03:41:07.468Z,6.40
2023-07-06T03:43:33.753Z,5.20
2023-07-06T03:46:00.325Z,6.00
2023-07-06T03:48:26.801Z,5.28
2023-07-06T03:50:53.112Z,5.97
2023-07-06T03:53:19.424Z,5.32
2023-07-06T03:55:45.685Z,6.47
2023-07-06T03:58:11.974Z,5.63
2023-07-06T04:00:38.328Z,6.07
2023-07-06T04:03:04.633Z,5.70
2023-07-06T04:05:30.965Z,5.00
2023-07-06T04:07:57.234Z,5.60
2023-07-06T04:10:23.528Z,5.50
2023-07-06T04:12:49.856Z,5.97
2023-07-06T04:15:16.168Z,5.50
2023-07-06T04:17:43.951Z,5.00
2023-07-06T04:20:11.308Z,5.38
2023-07-06T04:22:37.559Z,5.38
2023-07-06T04:25:03.860Z,5.70
2023-07-06T04:27:30.187Z,5.35
2023-07-06T04:29:56.515Z,5.35
2023-07-06T04:32:22.817Z,4.97
2023-07-06T04:34:49.161Z,5.50
2023-07-06T04:37:15.414Z,5.43
2023-07-06T04:39:41.691Z,5.65
2023-07-06T04:42:07.936Z,5.00
2023-07-06T04:44:34.251Z,4.88
2023-07-06T04:47:00.700Z,5.68
2023-07-06T04:49:27.103Z,4.97
2023-07-06T04:51:53.413Z,5.10
2023-07-06T04:54:19.701Z,5.43
2023-07-06T04:56:45.976Z,5.05
2023-07-06T04:59:12.260Z,5.22
2023-07-06T05:01:38.681Z,4.53
2023-07-06T05:04:05.178Z,5.80
2023-07-06T05:06:32.227Z,4.93
2023-07-06T05:08:58.566Z,5.53
2023-07-06T05:11:24.866Z,6.32
2023-07-06T05:13:51.196Z,5.50
2023-07-06T05:16:17.509Z,5.22
2023-07-06T05:18:43.908Z,4.93
2023-07-06T05:21:10.183Z,4.78
2023-07-06T05:23:36.483Z,4.30
2023-07-06T05:26:03.328Z,4.82
2023-07-06T05:28:29.632Z,5.55
2023-07-06T05:30:55.976Z,5.22
2023-07-06T05:33:22.259Z,5.38
2023-07-06T05:35:50.867Z,5.05
2023-07-06T05:38:18.770Z,5.55
2023-07-06T05:40:45.066Z,5.05
2023-07-06T05:43:11.359Z,6.28
2023-07-06T05:45:37.689Z,5.30
2023-07-06T05:48:04.081Z,6.15
2023-07-06T05:50:30.502Z,5.00
2023-07-06T05:52:56.820Z,5.75
2023-07-06T05:55:23.103Z,5.57
2023-07-06T05:57:49.433Z,5.88
2023-07-06T06:00:15.747Z,5.15
2023-07-06T06:02:42.030Z,4.90
2023-07-06T06:05:08.335Z,5.15
2023-07-06T06:07:34.744Z,4.80
2023-07-06T06:10:01.086Z,5.43
2023-07-06T06:12:27.375Z,5.28
2023-07-06T06:14:53.647Z,5.38
2023-07-06T06:17:20.074Z,5.43
2023-07-06T06:19:46.476Z,5.63
2023-07-06T06:22:12.779Z,5.45
2023-07-06T06:24:39.646Z,4.47
2023-07-06T06:27:05.929Z,4.53
2023-07-06T06:29:32.177Z,4.35
2023-07-06T06:32:00.946Z,4.95
2023-07-06T06:34:27.608Z,4.30
2023-07-06T06:36:53.936Z,5.22
2023-07-06T06:39:20.216Z,4.53
2023-07-06T06:41:46.536Z,4.25
2023-07-06T06:44:12.898Z,3.85
2023-07-06T06:46:39.266Z,4.15
2023-07-06T06:49:05.587Z,3.53
2023-07-06T06:51:31.855Z,3.88
2023-07-06T06:53:58.145Z,3.53
2023-07-06T06:56:24.397Z,3.40
2023-07-06T06:58:50.655Z,3.75
2023-07-06T07:01:17.022Z,3.35
2023-07-06T07:03:43.408Z,3.20
2023-07-06T07:06:09.762Z,3.03
2023-07-06T07:08:36.090Z,3.10
2023-07-06T07:11:14.187Z,3.80
2023-07-06T07:13:48.496Z,3.70
2023-07-06T07:16:14.860Z,3.78
2023-07-06T07:18:41.169Z,3.25
2023-07-06T07:21:07.462Z,2.80
2023-07-06T07:23:33.733Z,3.28
2023-07-06T07:26:00.071Z,4.25
2023-07-06T07:28:26.342Z,3.20
2023-07-06T07:30:52.642Z,3.53
2023-07-06T07:33:18.966Z,3.13
2023-07-06T07:35:45.262Z,3.45
2023-07-06T07:38:11.635Z,3.28
2023-07-06T07:40:37.979Z,4.38
2023-07-06T07:43:04.264Z,5.25
2023-07-06T07:45:30.620Z,4.72
2023-07-06T07:47:56.936Z,3.88
2023-07-06T07:50:23.333Z,4.47
2023-07-06T07:52:49.647Z,5.13
2023-07-06T07:55:15.955Z,4.13
2023-07-06T07:57:42.237Z,3.33
2023-07-06T08:00:08.511Z,4.22
2023-07-06T08:02:34.875Z,3.47
2023-07-06T08:05:01.197Z,4.30
2023-07-06T08:07:28.876Z,4.00
2023-07-06T08:09:55.194Z,3.90
2023-07-06T08:12:21.495Z,3.45
2023-07-06T08:14:47.777Z,3.88
2023-07-06T08:17:14.049Z,3.30
2023-07-06T08:19:58.011Z,3.58
2023-07-06T08:22:26.592Z,3.55
2023-07-06T08:24:52.891Z,3.35
2023-07-06T08:27:21.752Z,3.33
2023-07-06T08:29:49.304Z,3.20
2023-07-06T08:32:15.591Z,4.45
2023-07-06T08:34:41.882Z,3.65
2023-07-06T08:37:08.134Z,3.90
2023-07-06T08:39:34.473Z,3.90
2023-07-06T08:42:00.775Z,3.53
2023-07-06T08:44:27.081Z,3.05
2023-07-06T08:46:53.507Z,3.53
2023-07-06T08:49:19.824Z,3.42
2023-07-06T08:51:46.113Z,4.22
2023-07-06T08:54:12.359Z,3.10
2023-07-06T08:56:38.693Z,2.67
2023-07-06T08:59:05.013Z,3.03
2023-07-06T09:01:31.319Z,3.22
2023-07-06T09:03:57.754Z,2.90
2023-07-06T09:06:24.112Z,2.72
2023-07-06T09:08:50.408Z,3.38
2023-07-06T09:11:21.803Z,3.00
2023-07-06T09:13:48.709Z,3.10
2023-07-06T09:16:15.218Z,3.13
2023-07-06T09:18:41.551Z,3.47
2023-07-06T09:21:07.835Z,3.13
2023-07-06T09:23:34.123Z,2.80
2023-07-06T09:26:00.430Z,3.50
2023-07-06T09:28:26.685Z,2.55
2023-07-06T09:30:52.987Z,3.25
2023-07-06T09:33:19.270Z,3.03
2023-07-06T09:35:45.603Z,2.40
2023-07-06T09:38:11.876Z,3.40
2023-07-06T09:40:38.164Z,3.38
2023-07-06T09:43:04.468Z,3.33
2023-07-06T09:45:30.735Z,2.60
2023-07-06T09:47:57.042Z,2.83
2023-07-06T09:50:23.419Z,2.72
2023-07-06T09:52:49.706Z,2.85
2023-07-06T09:55:16.048Z,2.47
2023-07-06T09:57:42.375Z,3.88
2023-07-06T10:00:08.766Z,2.50
2023-07-06T10:02:35.082Z,3.78
2023-07-06T10:05:01.520Z,3.10
2023-07-06T10:07:27.859Z,2.70
2023-07-06T10:09:54.114Z,2.92
2023-07-06T10:12:20.396Z,2.95
2023-07-06T10:14:46.717Z,2.40
2023-07-06T10:17:13.106Z,2.88
2023-07-06T10:19:39.449Z,2.95
2023-07-06T10:22:05.734Z,2.75
2023-07-06T10:24:32.004Z,2.58
2023-07-06T10:26:58.298Z,2.80
2023-07-06T10:29:24.584Z,2.88
2023-07-06T10:31:50.903Z,3.22
2023-07-06T10:34:17.181Z,2.42
2023-07-06T10:36:43.471Z,2.75
2023-07-06T10:39:09.748Z,2.25
2023-07-06T10:41:36.048Z,2.85
2023-07-06T10:44:02.315Z,2.55
2023-07-06T10:46:28.664Z,2.92
2023-07-06T10:48:55.002Z,2.95
2023-07-06T10:51:21.294Z,2.70
2023-07-06T10:53:47.602Z,2.88
2023-07-06T10:56:13.890Z,2.60
2023-07-06T10:58:40.186Z,2.33
2023-07-06T11:01:06.463Z,3.05
2023-07-06T11:03:33.254Z,2.40
2023-07-06T11:06:00.156Z,2.58
2023-07-06T11:08:26.538Z,2.80
2023-07-06T11:10:52.897Z,2.20
2023-07-06T11:13:19.306Z,3.08
2023-07-06T11:15:45.616Z,2.20
2023-07-06T11:18:11.913Z,2.25
2023-07-06T11:20:38.245Z,2.30
2023-07-06T11:23:04.540Z,2.85
2023-07-06T11:25:30.836Z,2.45
2023-07-06T11:27:57.119Z,2.58
2023-07-06T11:30:23.403Z,2.60
2023-07-06T11:32:49.736Z,2.83
2023-07-06T11:35:16.100Z,2.60
2023-07-06T11:37:57.196Z,2.75
2023-07-06T11:40:24.399Z,2.50
2023-07-06T11:42:50.824Z,2.60
2023-07-06T11:45:17.088Z,2.50
2023-07-06T11:47:43.449Z,2.10
2023-07-06T11:50:09.841Z,2.33
2023-07-06T11:52:36.147Z,1.92
2023-07-06T11:55:02.557Z,1.90
2023-07-06T11:57:28.869Z,2.15
2023-07-06T11:59:55.141Z,1.98
2023-07-06T12:02:21.468Z,2.30
2023-07-06T12:04:48.031Z,1.60
2023-07-06T12:07:14.455Z,1.80
2023-07-06T12:09:40.747Z,2.10
2023-07-06T12:12:07.105Z,1.63
2023-07-06T12:14:33.423Z,1.90
2023-07-06T12:16:59.736Z,1.50
2023-07-06T12:19:25.989Z,1.20
2023-07-06T12:21:52.347Z,1.75
2023-07-06T12:24:18.657Z,1.30
2023-07-06T12:26:44.930Z,1.40
2023-07-06T12:29:11.232Z,1.58
2023-07-06T12:31:37.529Z,1.58
2023-07-06T12:34:03.858Z,1.70
2023-07-06T12:36:30.175Z,1.58
2023-07-06T12:38:56.481Z,2.00
2023-07-06T12:41:22.810Z,1.30
2023-07-06T12:43:49.452Z,1.70
2023-07-06T12:46:16.395Z,1.30
2023-07-06T12:48:42.792Z,1.88
2023-07-06T12:51:09.111Z,1.40
2023-07-06T12:53:35.440Z,1.60
2023-07-06T12:56:01.747Z,1.40
2023-07-06T12:58:28.102Z,1.30
2023-07-06T13:00:54.457Z,1.50
2023-07-06T13:03:20.780Z,1.45
2023-07-06T13:05:47.113Z,1.33
2023-07-06T13:08:13.425Z,1.58
2023-07-06T13:10:39.770Z,1.67
2023-07-06T13:13:06.049Z,1.50
2023-07-06T13:15:32.389Z,1.50
2023-07-06T13:17:58.813Z,1.60
2023-07-06T13:20:25.143Z,1.75
2023-07-06T13:22:51.469Z,1.30
2023-07-06T13:25:17.732Z,1.52
2023-07-06T13:27:44.033Z,1.73
2023-07-06T13:30:10.301Z,1.70
2023-07-06T13:32:36.595Z,1.40
2023-07-06T13:35:02.907Z,1.50
2023-07-06T13:37:29.183Z,1.70
2023-07-06T13:39:55.497Z,1.70
2023-07-06T13:42:21.790Z,1.50
2023-07-06T13:44:48.119Z,1.92
2023-07-06T13:47:14.428Z,1.92
2023-07-06T13:49:40.734Z,1.90
2023-07-06T13:52:06.995Z,1.40
2023-07-06T13:54:33.290Z,1.30
2023-07-06T13:56:59.600Z,1.70
2023-07-06T13:59:25.889Z,1.90
2023-07-06T14:01:52.198Z,1.83
2023-07-06T14:04:18.523Z,1.95
2023-07-06T14:06:44.831Z,1.70
2023-07-06T14:09:11.140Z,1.63
2023-07-06T14:11:38.704Z,1.40
2023-07-06T14:14:05.011Z,1.80
2023-07-06T14:16:31.344Z,1.75
2023-07-06T14:18:57.673Z,1.60
2023-07-06T14:21:23.994Z,2.50
2023-07-06T14:23:50.352Z,1.83
2023-07-06T14:26:16.684Z,2.05
2023-07-06T14:28:42.995Z,1.63
2023-07-06T14:31:09.445Z,1.63
2023-07-06T14:33:35.753Z,2.15
2023-07-06T14:36:02.014Z,1.60
2023-07-06T14:38:28.288Z,1.65
2023-07-06T14:40:54.592Z,2.00
2023-07-06T14:43:20.894Z,1.70
2023-07-06T14:45:47.202Z,1.55
2023-07-06T14:48:13.593Z,1.60
2023-07-06T14:50:39.881Z,2.08
2023-07-06T14:53:06.158Z,1.77
2023-07-06T14:55:34.080Z,1.38
2023-07-06T14:58:00.791Z,1.92
2023-07-06T15:00:27.121Z,1.60
2023-07-06T15:02:53.483Z,1.60
2023-07-06T15:05:19.812Z,1.85
2023-07-06T15:07:46.060Z,1.70
2023-07-06T15:10:12.383Z,1.70
2023-07-06T15:12:38.670Z,1.85
2023-07-06T15:15:05.013Z,1.70
2023-07-06T15:17:31.350Z,1.67
2023-07-06T15:19:57.740Z,1.85
2023-07-06T15:22:24.083Z,1.50
2023-07-06T15:24:50.376Z,1.50
2023-07-06T15:27:16.672Z,1.35
2023-07-06T15:29:42.959Z,1.65
2023-07-06T15:32:09.252Z,1.63
2023-07-06T15:34:38.398Z,1.73
2023-07-06T15:37:08.995Z,1.40
2023-07-06T15:39:35.261Z,1.60
2023-07-06T15:42:01.583Z,2.08
2023-07-06T15:44:27.893Z,1.25
2023-07-06T15:46:54.225Z,1.45
2023-07-06T15:49:20.532Z,1.83
2023-07-06T15:51:46.834Z,1.70
2023-07-06T15:54:13.163Z,1.67
2023-07-06T15:56:39.412Z,1.60
2023-07-06T15:59:05.704Z,1.67
2023-07-06T16:01:32.118Z,1.65
2023-07-06T16:03:58.698Z,1.70
2023-07-06T16:06:25.112Z,1.52
2023-07-06T16:08:51.387Z,1.50
2023-07-06T16:11:17.667Z,1.30
2023-07-06T16:13:43.985Z,1.70
2023-07-06T16:16:10.302Z,1.40
2023-07-06T16:18:36.553Z,2.60
2023-07-06T16:21:02.944Z,1.50
2023-07-06T16:23:29.284Z,1.40
2023-07-06T16:25:55.784Z,1.42
2023-07-06T16:28:22.278Z,1.52
2023-07-06T16:30:48.578Z,1.73
2023-07-06T16:33:14.960Z,1.50
2023-07-06T16:35:41.292Z,1.75
2023-07-06T16:38:07.609Z,1.70
2023-07-06T16:40:33.943Z,1.90
2023-07-06T16:43:00.211Z,1.58
2023-07-06T16:45:26.520Z,1.60
2023-07-06T16:47:52.816Z,1.42
2023-07-06T16:50:19.110Z,1.15
2023-07-06T16:52:45.381Z,1.48
2023-07-06T16:55:11.634Z,1.52
2023-07-06T16:57:37.919Z,1.42
2023-07-06T17:00:04.225Z,1.38
2023-07-06T17:02:30.625Z,1.23
2023-07-06T17:04:56.937Z,1.38
2023-07-06T17:07:23.274Z,1.30
2023-07-06T17:09:49.597Z,1.15
2023-07-06T17:12:15.892Z,1.40
2023-07-06T17:14:42.179Z,1.52
2023-07-06T17:17:08.468Z,1.60
2023-07-06T17:19:34.776Z,1.40
2023-07-06T17:22:01.098Z,1.50
2023-07-06T17:24:27.342Z,1.45
2023-07-06T17:26:53.619Z,1.50
2023-07-06T17:29:19.901Z,1.27
2023-07-06T17:31:46.234Z,1.60
2023-07-06T17:34:12.565Z,1.40
2023-07-06T17:36:38.846Z,1.42
2023-07-06T17:39:05.136Z,1.38
2023-07-06T17:41:31.424Z,1.40
2023-07-06T17:43:58.007Z,1.30
2023-07-06T17:46:24.378Z,1.35
2023-07-06T17:48:50.695Z,1.45
2023-07-06T17:51:17.013Z,1.50
2023-07-06T17:53:43.283Z,1.30
2023-07-06T17:56:09.612Z,1.65
2023-07-06T17:58:35.956Z,1.50
2023-07-06T18:01:02.237Z,1.48
2023-07-06T18:03:28.553Z,3.28
2023-07-06T18:05:55.062Z,6.38
2023-07-06T18:08:21.500Z,4.30
2023-07-06T18:10:47.793Z,2.47
2023-07-06T18:13:14.051Z,1.95
2023-07-06T18:15:40.319Z,1.63
2023-07-06T18:18:06.656Z,1.60
2023-07-06T18:20:32.970Z,1.60
2023-07-06T18:22:59.286Z,2.05
2023-07-06T18:25:25.577Z,2.35
2023-07-06T18:27:51.901Z,2.03
2023-07-06T18:30:18.234Z,1.98
2023-07-06T18:32:44.557Z,1.92
2023-07-06T18:35:10.888Z,1.90
2023-07-06T18:37:37.164Z,1.90
2023-07-06T18:40:03.557Z,2.28
2023-07-06T18:42:29.827Z,2.10
2023-07-06T18:44:56.192Z,2.70
2023-07-06T18:47:22.523Z,2.03
2023-07-06T18:49:48.799Z,2.20
2023-07-06T18:52:15.117Z,2.00
2023-07-06T18:54:41.358Z,2.42
2023-07-06T18:57:08.079Z,1.95
2023-07-06T18:59:34.472Z,2.05
2023-07-06T19:02:00.824Z,2.33
2023-07-06T19:04:27.179Z,2.03
2023-07-06T19:06:53.498Z,2.05
2023-07-06T19:09:19.813Z,2.40
2023-07-06T19:11:46.109Z,2.00
2023-07-06T19:14:12.444Z,2.40
2023-07-06T19:16:38.824Z,2.90
2023-07-06T19:19:05.207Z,2.85
2023-07-06T19:21:31.497Z,2.63
2023-07-06T19:23:57.806Z,2.60
2023-07-06T19:26:24.079Z,2.58
2023-07-06T19:28:50.453Z,2.17
2023-07-06T19:31:16.866Z,1.90
2023-07-06T19:33:43.142Z,2.28
2023-07-06T19:36:09.427Z,2.05
2023-07-06T19:38:35.832Z,2.10
2023-07-06T19:41:02.136Z,2.40
2023-07-06T19:43:28.435Z,1.80
2023-07-06T19:45:59.431Z,1.92
2023-07-06T19:48:28.123Z,2.00
2023-07-06T19:50:54.458Z,2.00
2023-07-06T19:53:20.749Z,1.85
2023-07-06T19:55:47.025Z,2.00
2023-07-06T19:58:13.341Z,2.58
2023-07-06T20:00:39.645Z,2.70
2023-07-06T20:03:06.119Z,2.25
2023-07-06T20:05:32.441Z,2.15
2023-07-06T20:07:58.746Z,2.53
2023-07-06T20:10:25.044Z,2.28
2023-07-06T20:12:51.310Z,2.55
2023-07-06T20:15:17.622Z,1.90
2023-07-06T20:17:43.964Z,3.13
2023-07-06T20:20:10.311Z,2.28
2023-07-06T20:22:36.607Z,2.17
2023-07-06T20:25:02.887Z,2.20
2023-07-06T20:27:29.165Z,2.03
2023-07-06T20:29:55.467Z,2.05
2023-07-06T20:32:21.747Z,2.20
2023-07-06T20:34:48.050Z,1.60
2023-07-06T20:37:14.370Z,1.60
2023-07-06T20:39:40.704Z,1.98
2023-07-06T20:42:06.977Z,1.98
2023-07-06T20:44:33.251Z,2.00
2023-07-06T20:46:59.576Z,2.00
2023-07-06T20:49:25.909Z,1.70
2023-07-06T20:51:52.192Z,2.35
2023-07-06T20:54:18.516Z,2.05
2023-07-06T20:56:44.841Z,2.25
2023-07-06T20:59:11.155Z,1.90
2023-07-06T21:01:37.577Z,2.08
2023-07-06T21:04:03.947Z,1.88
2023-07-06T21:06:30.254Z,2.20
2023-07-06T21:08:56.580Z,2.17
2023-07-06T21:11:22.847Z,1.88
2023-07-06T21:13:49.180Z,1.85
2023-07-06T21:16:15.587Z,2.13
2023-07-06T21:18:41.886Z,1.90
2023-07-06T21:21:08.267Z,1.90
2023-07-06T21:23:34.533Z,1.98
2023-07-06T21:26:00.827Z,2.95
2023-07-06T21:28:27.137Z,2.85
2023-07-06T21:30:53.397Z,3.17
2023-07-06T21:33:19.676Z,2.42
2023-07-06T21:35:45.986Z,1.95
2023-07-06T21:38:12.296Z,2.17
2023-07-06T21:40:38.591Z,2.22
2023-07-06T21:43:04.921Z,15.52
2023-07-06T21:45:31.435Z,7.43
2023-07-06T21:47:57.882Z,6.38
2023-07-06T21:50:24.224Z,3.55
2023-07-06T21:52:50.526Z,3.63
2023-07-06T21:55:16.813Z,2.72
2023-07-06T21:57:43.078Z,2.30
2023-07-06T22:00:09.425Z,1.73
2023-07-06T22:02:35.763Z,2.20
2023-07-06T22:05:02.062Z,2.15
2023-07-06T22:07:28.339Z,2.85
2023-07-06T22:09:54.613Z,2.65
2023-07-06T22:12:20.944Z,2.50
2023-07-06T22:14:47.840Z,3.53
2023-07-06T22:17:14.260Z,2.70
2023-07-06T22:19:40.597Z,3.20
2023-07-06T22:22:07.062Z,3.13
2023-07-06T22:24:33.383Z,3.17
2023-07-06T22:26:59.723Z,3.30
2023-07-06T22:29:26.034Z,3.50
2023-07-06T22:31:52.522Z,3.70
2023-07-06T22:34:19.086Z,2.80
2023-07-06T22:36:45.516Z,3.78
2023-07-06T22:39:11.808Z,3.90
2023-07-06T22:41:38.118Z,4.43
2023-07-06T22:44:04.574Z,3.67
2023-07-06T22:46:30.927Z,3.60
2023-07-06T22:48:57.246Z,3.75
2023-07-06T22:51:23.549Z,4.30
2023-07-06T22:53:49.841Z,4.28
2023-07-06T22:56:16.120Z,3.80
2023-07-06T22:58:42.429Z,4.43
2023-07-06T23:01:08.722Z,3.88
2023-07-06T23:03:35.100Z,3.15
2023-07-06T23:06:01.504Z,4.40
2023-07-06T23:08:27.845Z,3.33
2023-07-06T23:10:54.135Z,3.40
2023-07-06T23:13:20.534Z,3.47
2023-07-06T23:15:46.884Z,3.65
2023-07-06T23:18:13.250Z,3.72
2023-07-06T23:20:39.610Z,3.72
2023-07-06T23:23:06.039Z,3.42
2023-07-06T23:25:32.368Z,3.25
2023-07-06T23:27:58.643Z,3.17
2023-07-06T23:30:24.917Z,3.30
2023-07-06T23:32:51.254Z,3.17
2023-07-06T23:35:17.546Z,2.90
2023-07-06T23:37:43.821Z,2.90
2023-07-06T23:40:10.105Z,2.30
2023-07-06T23:42:36.395Z,2.72
2023-07-06T23:45:02.694Z,2.92
2023-07-06T23:47:29.021Z,2.95
2023-07-06T23:49:55.355Z,2.80
2023-07-06T23:52:21.635Z,2.80
2023-07-06T23:54:47.917Z,3.20
2023-07-06T23:57:14.208Z,2.72
2023-07-06T23:59:40.529Z,2.80
